sensor_id;sensor_type;location;lat;lon;timestamp;pressure;altitude;pressure_sealevel;temperature;humidity
11223;BME280;5668;52.012;8.724;2023-12-29T00:00:00;99400.66;;;11.31;81.53
11223;BME280;5668;52.012;8.724;2023-12-29T00:02:28;99396.00;;;11.24;81.80
11223;BME280;5668;52.012;8.724;2023-12-29T00:04:57;99401.19;;;11.24;80.88
11223;BME280;5668;52.012;8.724;2023-12-29T00:07:24;99381.91;;;11.27;81.63
11223;BME280;5668;52.012;8.724;2023-12-29T00:09:51;99361.94;;;11.28;81.48
11223;BME280;5668;52.012;8.724;2023-12-29T00:12:19;99370.94;;;11.23;81.82
11223;BME280;5668;52.012;8.724;2023-12-29T00:14:46;99374.50;;;11.22;82.08
11223;BME280;5668;52.012;8.724;2023-12-29T00:17:13;99384.06;;;11.22;82.51
11223;BME280;5668;52.012;8.724;2023-12-29T00:19:40;99377.78;;;11.24;82.52
11223;BME280;5668;52.012;8.724;2023-12-29T00:22:09;99382.03;;;11.25;82.76
11223;BME280;5668;52.012;8.724;2023-12-29T00:24:36;99382.72;;;11.28;82.20
11223;BME280;5668;52.012;8.724;2023-12-29T00:27:05;99371.63;;;11.25;82.75
11223;BME280;5668;52.012;8.724;2023-12-29T00:29:33;99377.78;;;11.24;82.49
11223;BME280;5668;52.012;8.724;2023-12-29T00:32:00;99363.69;;;11.27;82.65
11223;BME280;5668;52.012;8.724;2023-12-29T00:34:28;99361.75;;;11.29;82.91
11223;BME280;5668;52.012;8.724;2023-12-29T00:36:55;99363.28;;;11.32;82.93
11223;BME280;5668;52.012;8.724;2023-12-29T00:39:24;99364.09;;;11.32;83.10
11223;BME280;5668;52.012;8.724;2023-12-29T00:41:54;99356.03;;;11.25;83.34
11223;BME280;5668;52.012;8.724;2023-12-29T00:44:23;99351.53;;;11.28;83.26
11223;BME280;5668;52.012;8.724;2023-12-29T00:46:50;99356.19;;;11.34;83.00
11223;BME280;5668;52.012;8.724;2023-12-29T00:49:17;99351.34;;;11.29;84.00
11223;BME280;5668;52.012;8.724;2023-12-29T00:51:46;99353.56;;;11.34;83.56
11223;BME280;5668;52.012;8.724;2023-12-29T00:54:14;99360.44;;;11.35;84.35
11223;BME280;5668;52.012;8.724;2023-12-29T00:56:47;99334.53;;;11.33;84.91
11223;BME280;5668;52.012;8.724;2023-12-29T00:59:14;99333.72;;;11.33;85.38
11223;BME280;5668;52.012;8.724;2023-12-29T01:01:41;99335.91;;;11.28;86.62
11223;BME280;5668;52.012;8.724;2023-12-29T01:04:10;99330.28;;;11.22;87.43
11223;BME280;5668;52.012;8.724;2023-12-29T01:06:37;99331.09;;;11.23;87.67
11223;BME280;5668;52.012;8.724;2023-12-29T01:09:05;99342.91;;;11.27;87.92
11223;BME280;5668;52.012;8.724;2023-12-29T01:11:34;99319.31;;;11.29;88.48
11223;BME280;5668;52.012;8.724;2023-12-29T01:14:02;99327.13;;;11.29;88.77
11223;BME280;5668;52.012;8.724;2023-12-29T01:16:30;99320.31;;;11.28;88.16
11223;BME280;5668;52.012;8.724;2023-12-29T01:18:57;99334.25;;;11.27;88.17
11223;BME280;5668;52.012;8.724;2023-12-29T01:21:24;99328.09;;;11.28;88.29
11223;BME280;5668;52.012;8.724;2023-12-29T01:23:51;99338.09;;;11.32;88.71
11223;BME280;5668;52.012;8.724;2023-12-29T01:26:18;99327.00;;;11.30;88.91
11223;BME280;5668;52.012;8.724;2023-12-29T01:28:45;99330.41;;;11.31;89.19
11223;BME280;5668;52.012;8.724;2023-12-29T01:31:14;99328.78;;;11.30;89.31
11223;BME280;5668;52.012;8.724;2023-12-29T01:33:41;99315.91;;;11.28;90.56
11223;BME280;5668;52.012;8.724;2023-12-29T01:36:08;99309.91;;;11.28;91.04
11223;BME280;5668;52.012;8.724;2023-12-29T01:38:36;99306.31;;;11.29;90.79
11223;BME280;5668;52.012;8.724;2023-12-29T01:41:03;99294.31;;;11.28;90.54
11223;BME280;5668;52.012;8.724;2023-12-29T01:43:30;99293.88;;;11.22;90.92
11223;BME280;5668;52.012;8.724;2023-12-29T01:45:57;99291.69;;;11.28;90.34
11223;BME280;5668;52.012;8.724;2023-12-29T01:48:26;99293.47;;;11.27;89.62
11223;BME280;5668;52.012;8.724;2023-12-29T01:50:55;99275.81;;;11.31;89.36
11223;BME280;5668;52.012;8.724;2023-12-29T01:53:23;99277.56;;;11.30;89.46
11223;BME280;5668;52.012;8.724;2023-12-29T01:55:51;99281.69;;;11.33;89.14
11223;BME280;5668;52.012;8.724;2023-12-29T01:58:18;99275.66;;;11.32;88.78
11223;BME280;5668;52.012;8.724;2023-12-29T02:00:46;99262.94;;;11.29;88.82
11223;BME280;5668;52.012;8.724;2023-12-29T02:03:13;99262.94;;;11.29;88.80
11223;BME280;5668;52.012;8.724;2023-12-29T02:05:43;99268.00;;;11.31;88.99
11223;BME280;5668;52.012;8.724;2023-12-29T02:08:12;99274.84;;;11.32;88.95
11223;BME280;5668;52.012;8.724;2023-12-29T02:10:39;99262.53;;;11.34;88.03
11223;BME280;5668;52.012;8.724;2023-12-29T02:13:07;99269.22;;;11.36;88.43
11223;BME280;5668;52.012;8.724;2023-12-29T02:15:34;99247.88;;;11.33;88.51
11223;BME280;5668;52.012;8.724;2023-12-29T02:18:02;99249.38;;;11.35;88.29
11223;BME280;5668;52.012;8.724;2023-12-29T02:20:33;99257.84;;;11.37;88.36
11223;BME280;5668;52.012;8.724;2023-12-29T02:23:03;99252.41;;;11.40;88.58
11223;BME280;5668;52.012;8.724;2023-12-29T02:25:31;99260.34;;;11.39;88.38
11223;BME280;5668;52.012;8.724;2023-12-29T02:28:04;99263.88;;;11.38;88.63
11223;BME280;5668;52.012;8.724;2023-12-29T02:30:37;99262.25;;;11.37;88.01
11223;BME280;5668;52.012;8.724;2023-12-29T02:33:07;99252.41;;;11.40;88.40
11223;BME280;5668;52.012;8.724;2023-12-29T02:35:41;99260.59;;;11.45;88.07
11223;BME280;5668;52.012;8.724;2023-12-29T02:38:09;99272.50;;;11.48;87.77
11223;BME280;5668;52.012;8.724;2023-12-29T02:40:38;99258.81;;;11.46;88.10
11223;BME280;5668;52.012;8.724;2023-12-29T02:43:06;99269.22;;;11.46;88.41
11223;BME280;5668;52.012;8.724;2023-12-29T02:45:33;99268.97;;;11.49;88.86
11223;BME280;5668;52.012;8.724;2023-12-29T02:48:00;99314.16;;;11.48;88.97
11223;BME280;5668;52.012;8.724;2023-12-29T02:50:27;99276.75;;;11.39;90.43
11223;BME280;5668;52.012;8.724;2023-12-29T02:52:55;99261.97;;;11.40;91.58
11223;BME280;5668;52.012;8.724;2023-12-29T02:55:22;99280.59;;;11.35;92.76
11223;BME280;5668;52.012;8.724;2023-12-29T02:57:50;99287.72;;;11.33;93.05
11223;BME280;5668;52.012;8.724;2023-12-29T03:02:52;99287.84;;;11.32;94.61
11223;BME280;5668;52.012;8.724;2023-12-29T03:05:20;99289.75;;;11.30;95.53
11223;BME280;5668;52.012;8.724;2023-12-29T03:07:47;99290.88;;;11.27;96.91
11223;BME280;5668;52.012;8.724;2023-12-29T03:10:14;99266.38;;;11.20;98.20
11223;BME280;5668;52.012;8.724;2023-12-29T03:12:41;99270.44;;;11.13;98.75
11223;BME280;5668;52.012;8.724;2023-12-29T03:15:10;99248.44;;;11.07;99.83
11223;BME280;5668;52.012;8.724;2023-12-29T03:17:37;99245.28;;;10.94;100.00
11223;BME280;5668;52.012;8.724;2023-12-29T03:20:06;99244.19;;;10.87;100.00
11223;BME280;5668;52.012;8.724;2023-12-29T03:22:35;99239.09;;;10.85;100.00
11223;BME280;5668;52.012;8.724;2023-12-29T03:25:02;99250.47;;;10.84;100.00
11223;BME280;5668;52.012;8.724;2023-12-29T03:27:29;99249.91;;;10.81;100.00
11223;BME280;5668;52.012;8.724;2023-12-29T03:29:57;99250.19;;;10.78;100.00
11223;BME280;5668;52.012;8.724;2023-12-29T03:32:25;99252.91;;;10.76;100.00
11223;BME280;5668;52.012;8.724;2023-12-29T03:34:53;99235.13;;;10.72;100.00
11223;BME280;5668;52.012;8.724;2023-12-29T03:37:20;99220.38;;;10.72;100.00
11223;BME280;5668;52.012;8.724;2023-12-29T03:39:47;99214.09;;;10.75;100.00
11223;BME280;5668;52.012;8.724;2023-12-29T03:42:14;99222.84;;;10.74;100.00
11223;BME280;5668;52.012;8.724;2023-12-29T03:44:42;99212.81;;;10.69;100.00
11223;BME280;5668;52.012;8.724;2023-12-29T03:47:09;99226.38;;;10.73;100.00
11223;BME280;5668;52.012;8.724;2023-12-29T03:49:38;99217.75;;;10.72;100.00
11223;BME280;5668;52.012;8.724;2023-12-29T03:52:06;99210.34;;;10.68;100.00
11223;BME280;5668;52.012;8.724;2023-12-29T03:54:33;99197.66;;;10.65;100.00
11223;BME280;5668;52.012;8.724;2023-12-29T03:57:03;99197.91;;;10.62;100.00
11223;BME280;5668;52.012;8.724;2023-12-29T03:59:31;99211.34;;;10.67;100.00
11223;BME280;5668;52.012;8.724;2023-12-29T04:01:58;99194.75;;;10.68;100.00
11223;BME280;5668;52.012;8.724;2023-12-29T04:04:25;99195.47;;;10.70;100.00
11223;BME280;5668;52.012;8.724;2023-12-29T04:06:54;99199.00;;;10.69;100.00
11223;BME280;5668;52.012;8.724;2023-12-29T04:09:21;99212.69;;;10.71;100.00
11223;BME280;5668;52.012;8.724;2023-12-29T04:11:48;99204.22;;;10.69;100.00
11223;BME280;5668;52.012;8.724;2023-12-29T04:14:15;99211.84;;;10.61;100.00
11223;BME280;5668;52.012;8.724;2023-12-29T04:16:43;99206.66;;;10.61;100.00
11223;BME280;5668;52.012;8.724;2023-12-29T04:19:10;99215.16;;;10.63;100.00
11223;BME280;5668;52.012;8.724;2023-12-29T04:21:37;99202.84;;;10.65;100.00
11223;BME280;5668;52.012;8.724;2023-12-29T04:24:06;99208.19;;;10.63;100.00
11223;BME280;5668;52.012;8.724;2023-12-29T04:26:36;99203.53;;;10.57;100.00
11223;BME280;5668;52.012;8.724;2023-12-29T04:29:03;99214.44;;;10.61;100.00
11223;BME280;5668;52.012;8.724;2023-12-29T04:31:30;99223.63;;;10.65;100.00
11223;BME280;5668;52.012;8.724;2023-12-29T04:33:57;99188.47;;;10.61;100.00
11223;BME280;5668;52.012;8.724;2023-12-29T04:36:24;99206.94;;;10.58;100.00
11223;BME280;5668;52.012;8.724;2023-12-29T04:38:52;99219.94;;;10.58;100.00
11223;BME280;5668;52.012;8.724;2023-12-29T04:41:20;99213.09;;;10.57;100.00
11223;BME280;5668;52.012;8.724;2023-12-29T04:43:47;99213.63;;;10.60;100.00
11223;BME280;5668;52.012;8.724;2023-12-29T04:46:14;99205.69;;;10.62;100.00
11223;BME280;5668;52.012;8.724;2023-12-29T04:48:42;99213.50;;;10.62;100.00
11223;BME280;5668;52.012;8.724;2023-12-29T04:51:09;99215.28;;;10.61;100.00
11223;BME280;5668;52.012;8.724;2023-12-29T04:53:37;99201.06;;;10.56;100.00
11223;BME280;5668;52.012;8.724;2023-12-29T04:56:04;99213.09;;;10.57;100.00
11223;BME280;5668;52.012;8.724;2023-12-29T04:58:33;99213.50;;;10.62;100.00
11223;BME280;5668;52.012;8.724;2023-12-29T05:01:00;99210.50;;;10.57;100.00
11223;BME280;5668;52.012;8.724;2023-12-29T05:03:27;99207.78;;;10.58;100.00
11223;BME280;5668;52.012;8.724;2023-12-29T05:05:55;99206.00;;;10.59;100.00
11223;BME280;5668;52.012;8.724;2023-12-29T05:08:22;99212.69;;;10.61;100.00
11223;BME280;5668;52.012;8.724;2023-12-29T05:10:49;99210.91;;;10.62;100.00
11223;BME280;5668;52.012;8.724;2023-12-29T05:13:16;99209.94;;;10.63;100.00
11223;BME280;5668;52.012;8.724;2023-12-29T05:15:46;99202.97;;;10.63;100.00
11223;BME280;5668;52.012;8.724;2023-12-29T05:18:13;99208.03;;;10.65;100.00
11223;BME280;5668;52.012;8.724;2023-12-29T05:20:40;99214.31;;;10.62;100.00
11223;BME280;5668;52.012;8.724;2023-12-29T05:23:07;99209.94;;;10.63;100.00
11223;BME280;5668;52.012;8.724;2023-12-29T05:25:34;99207.34;;;10.63;100.00
11223;BME280;5668;52.012;8.724;2023-12-29T05:28:02;99219.13;;;10.67;100.00
11223;BME280;5668;52.012;8.724;2023-12-29T05:30:29;99206.41;;;10.64;100.00
11223;BME280;5668;52.012;8.724;2023-12-29T05:32:59;99212.28;;;10.66;100.00
11223;BME280;5668;52.012;8.724;2023-12-29T05:35:26;99206.56;;;10.72;100.00
11223;BME280;5668;52.012;8.724;2023-12-29T05:37:53;99207.25;;;10.74;100.00
11223;BME280;5668;52.012;8.724;2023-12-29T05:40:21;99202.31;;;10.71;100.00
11223;BME280;5668;52.012;8.724;2023-12-29T05:42:48;99209.69;;;10.75;100.00
11223;BME280;5668;52.012;8.724;2023-12-29T05:45:16;99216.00;;;10.73;100.00
11223;BME280;5668;52.012;8.724;2023-12-29T05:47:43;99213.66;;;10.70;100.00
11223;BME280;5668;52.012;8.724;2023-12-29T05:50:13;99207.25;;;10.74;100.00
11223;BME280;5668;52.012;8.724;2023-12-29T05:52:43;99201.88;;;10.75;100.00
11223;BME280;5668;52.012;8.724;2023-12-29T05:55:11;99201.75;;;10.77;100.00
11223;BME280;5668;52.012;8.724;2023-12-29T05:57:38;99212.44;;;10.74;100.00
11223;BME280;5668;52.012;8.724;2023-12-29T06:00:06;99198.34;;;10.76;100.00
11223;BME280;5668;52.012;8.724;2023-12-29T06:02:40;99213.81;;;10.78;100.00
11223;BME280;5668;52.012;8.724;2023-12-29T06:05:08;99222.28;;;10.80;100.00
11223;BME280;5668;52.012;8.724;2023-12-29T06:07:37;99204.78;;;10.82;100.00
11223;BME280;5668;52.012;8.724;2023-12-29T06:10:06;99211.59;;;10.83;100.00
11223;BME280;5668;52.012;8.724;2023-12-29T06:12:35;99221.34;;;10.81;100.00
11223;BME280;5668;52.012;8.724;2023-12-29T06:15:03;99210.25;;;10.79;100.00
11223;BME280;5668;52.012;8.724;2023-12-29T06:17:30;99207.38;;;10.82;100.00
11223;BME280;5668;52.012;8.724;2023-12-29T06:19:58;99210.53;;;10.85;100.00
11223;BME280;5668;52.012;8.724;2023-12-29T06:22:27;99204.25;;;10.88;100.00
11223;BME280;5668;52.012;8.724;2023-12-29T06:24:56;99211.22;;;10.88;100.00
11223;BME280;5668;52.012;8.724;2023-12-29T06:27:24;99219.84;;;10.88;100.00
11223;BME280;5668;52.012;8.724;2023-12-29T06:29:51;99228.59;;;10.87;100.00
11223;BME280;5668;52.012;8.724;2023-12-29T06:32:18;99225.03;;;10.88;100.00
11223;BME280;5668;52.012;8.724;2023-12-29T06:34:46;99223.66;;;10.84;100.00
11223;BME280;5668;52.012;8.724;2023-12-29T06:37:14;99226.94;;;10.86;100.00
11223;BME280;5668;52.012;8.724;2023-12-29T06:39:41;99234.31;;;10.91;100.00
11223;BME280;5668;52.012;8.724;2023-12-29T06:42:10;99226.38;;;10.92;100.00
11223;BME280;5668;52.012;8.724;2023-12-29T06:44:37;99224.47;;;10.94;100.00
11223;BME280;5668;52.012;8.724;2023-12-29T06:47:04;99226.38;;;10.92;100.00
11223;BME280;5668;52.012;8.724;2023-12-29T06:49:33;99228.84;;;10.94;100.00
11223;BME280;5668;52.012;8.724;2023-12-29T06:52:01;99231.31;;;10.95;100.00
11223;BME280;5668;52.012;8.724;2023-12-29T06:54:28;99218.47;;;10.94;100.00
11223;BME280;5668;52.012;8.724;2023-12-29T06:56:56;99228.84;;;10.94;100.00
11223;BME280;5668;52.012;8.724;2023-12-29T06:59:24;99235.69;;;10.95;100.00
11223;BME280;5668;52.012;8.724;2023-12-29T07:01:51;99248.56;;;10.96;100.00
11223;BME280;5668;52.012;8.724;2023-12-29T07:04:19;99251.31;;;10.95;100.00
11223;BME280;5668;52.012;8.724;2023-12-29T07:06:46;99245.28;;;10.94;100.00
11223;BME280;5668;52.012;8.724;2023-12-29T07:09:13;99251.84;;;10.98;100.00
11223;BME280;5668;52.012;8.724;2023-12-29T07:11:40;99253.47;;;10.99;100.00
11223;BME280;5668;52.012;8.724;2023-12-29T07:14:08;99244.72;;;11.00;100.00
11223;BME280;5668;52.012;8.724;2023-12-29T07:16:36;99256.50;;;11.04;100.00
11223;BME280;5668;52.012;8.724;2023-12-29T07:19:04;99266.91;;;11.04;99.68
11223;BME280;5668;52.012;8.724;2023-12-29T07:21:31;99270.47;;;11.03;99.56
11223;BME280;5668;52.012;8.724;2023-12-29T07:23:58;99260.19;;;11.02;99.84
11223;BME280;5668;52.012;8.724;2023-12-29T07:26:25;99275.66;;;11.03;99.73
11223;BME280;5668;52.012;8.724;2023-12-29T07:28:52;99267.56;;;11.06;99.61
11223;BME280;5668;52.012;8.724;2023-12-29T07:31:20;99272.13;;;11.04;99.27
11223;BME280;5668;52.012;8.724;2023-12-29T07:33:48;99269.78;;;11.01;99.06
11223;BME280;5668;52.012;8.724;2023-12-29T07:36:16;99274.84;;;11.03;98.46
11223;BME280;5668;52.012;8.724;2023-12-29T07:38:43;99275.66;;;11.03;98.69
11223;BME280;5668;52.012;8.724;2023-12-29T07:41:10;99283.06;;;11.08;97.84
11223;BME280;5668;52.012;8.724;2023-12-29T07:43:37;99291.81;;;11.07;97.57
11223;BME280;5668;52.012;8.724;2023-12-29T07:46:05;99282.91;;;11.09;97.55
11223;BME280;5668;52.012;8.724;2023-12-29T07:48:32;99275.00;;;11.11;97.60
11223;BME280;5668;52.012;8.724;2023-12-29T07:51:05;99291.25;;;11.13;97.63
11223;BME280;5668;52.012;8.724;2023-12-29T07:53:33;99280.19;;;11.11;97.34
11223;BME280;5668;52.012;8.724;2023-12-29T07:56:00;99279.38;;;11.10;97.34
11223;BME280;5668;52.012;8.724;2023-12-29T07:58:28;99280.84;;;11.13;96.78
11223;BME280;5668;52.012;8.724;2023-12-29T08:00:55;99282.66;;;11.12;96.57
11223;BME280;5668;52.012;8.724;2023-12-29T08:03:22;99284.44;;;11.12;96.44
11223;BME280;5668;52.012;8.724;2023-12-29T08:05:50;99285.53;;;11.09;96.08
11223;BME280;5668;52.012;8.724;2023-12-29T08:08:18;99278.66;;;11.08;96.34
11223;BME280;5668;52.012;8.724;2023-12-29T08:10:45;99278.66;;;11.08;96.05
11223;BME280;5668;52.012;8.724;2023-12-29T08:13:12;99289.91;;;11.09;96.04
11223;BME280;5668;52.012;8.724;2023-12-29T08:15:40;99292.50;;;11.09;96.25
11223;BME280;5668;52.012;8.724;2023-12-29T08:18:08;99282.78;;;11.11;95.53
11223;BME280;5668;52.012;8.724;2023-12-29T08:20:36;99282.78;;;11.11;95.87
11223;BME280;5668;52.012;8.724;2023-12-29T08:23:03;99281.69;;;11.13;95.64
11223;BME280;5668;52.012;8.724;2023-12-29T08:25:32;99282.50;;;11.14;95.39
11223;BME280;5668;52.012;8.724;2023-12-29T08:27:59;99277.28;;;11.14;95.35
11223;BME280;5668;52.012;8.724;2023-12-29T08:30:26;99292.06;;;11.13;95.12
11223;BME280;5668;52.012;8.724;2023-12-29T08:32:53;99277.88;;;11.17;95.15
11223;BME280;5668;52.012;8.724;2023-12-29T08:35:21;99270.75;;;11.19;95.17
11223;BME280;5668;52.012;8.724;2023-12-29T08:37:48;99278.81;;;11.16;95.10
11223;BME280;5668;52.012;8.724;2023-12-29T08:40:15;99276.34;;;11.15;95.59
11223;BME280;5668;52.012;8.724;2023-12-29T08:42:44;99269.38;;;11.15;95.28
11223;BME280;5668;52.012;8.724;2023-12-29T08:45:12;99272.66;;;11.17;96.13
11223;BME280;5668;52.012;8.724;2023-12-29T08:47:39;99267.72;;;11.14;96.62
11223;BME280;5668;52.012;8.724;2023-12-29T08:50:08;99279.91;;;11.14;97.70
11223;BME280;5668;52.012;8.724;2023-12-29T08:52:36;99276.75;;;11.10;98.14
11223;BME280;5668;52.012;8.724;2023-12-29T08:55:04;99273.72;;;11.05;98.96
11223;BME280;5668;52.012;8.724;2023-12-29T08:57:31;99288.38;;;11.06;99.44
11223;BME280;5668;52.012;8.724;2023-12-29T09:00:00;99288.38;;;11.06;99.98
11223;BME280;5668;52.012;8.724;2023-12-29T09:02:27;99288.53;;;11.05;100.00
11223;BME280;5668;52.012;8.724;2023-12-29T09:04:54;99279.22;;;11.02;100.00
11223;BME280;5668;52.012;8.724;2023-12-29T09:07:22;99266.63;;;11.07;100.00
11223;BME280;5668;52.012;8.724;2023-12-29T09:09:49;99263.63;;;11.02;100.00
11223;BME280;5668;52.012;8.724;2023-12-29T09:12:17;99266.47;;;10.99;100.00
11223;BME280;5668;52.012;8.724;2023-12-29T09:14:44;99259.91;;;10.95;100.00
11223;BME280;5668;52.012;8.724;2023-12-29T09:17:12;99273.19;;;10.92;100.00
11223;BME280;5668;52.012;8.724;2023-12-29T09:19:40;99259.34;;;10.92;100.00
11223;BME280;5668;52.012;8.724;2023-12-29T09:22:07;99261.41;;;10.88;100.00
11223;BME280;5668;52.012;8.724;2023-12-29T09:24:34;99263.31;;;10.86;100.00
11223;BME280;5668;52.012;8.724;2023-12-29T09:27:01;99269.22;;;10.88;100.00
11223;BME280;5668;52.012;8.724;2023-12-29T09:29:29;99257.03;;;10.79;100.00
11223;BME280;5668;52.012;8.724;2023-12-29T09:31:56;99258.38;;;10.83;100.00
11223;BME280;5668;52.012;8.724;2023-12-29T09:34:24;99227.50;;;10.80;100.00
11223;BME280;5668;52.012;8.724;2023-12-29T09:36:52;99252.66;;;10.79;100.00
11223;BME280;5668;52.012;8.724;2023-12-29T09:39:19;99242.25;;;10.79;100.00
11223;BME280;5668;52.012;8.724;2023-12-29T09:41:47;99253.72;;;10.77;100.00
11223;BME280;5668;52.012;8.724;2023-12-29T09:44:20;99259.75;;;10.77;100.00
11223;BME280;5668;52.012;8.724;2023-12-29T09:46:50;99263.88;;;10.80;100.00
11223;BME280;5668;52.012;8.724;2023-12-29T09:49:20;99252.41;;;10.82;100.00
11223;BME280;5668;52.012;8.724;2023-12-29T09:51:49;99266.88;;;10.85;100.00
11223;BME280;5668;52.012;8.724;2023-12-29T09:54:17;99270.16;;;10.87;100.00
11223;BME280;5668;52.012;8.724;2023-12-29T09:56:45;99276.31;;;10.86;100.00
11223;BME280;5668;52.012;8.724;2023-12-29T09:59:13;99277.28;;;10.85;100.00
11223;BME280;5668;52.012;8.724;2023-12-29T10:01:41;99266.88;;;10.85;100.00
11223;BME280;5668;52.012;8.724;2023-12-29T10:04:11;99258.13;;;10.86;100.00
11223;BME280;5668;52.012;8.724;2023-12-29T10:06:43;99267.69;;;10.85;100.00
11223;BME280;5668;52.012;8.724;2023-12-29T10:09:13;99260.72;;;10.86;100.00
11223;BME280;5668;52.012;8.724;2023-12-29T10:11:43;99248.00;;;10.83;100.00
11223;BME280;5668;52.012;8.724;2023-12-29T10:14:23;99249.38;;;10.87;100.00
11223;BME280;5668;52.012;8.724;2023-12-29T10:16:56;99251.97;;;10.87;100.00
11223;BME280;5668;52.012;8.724;2023-12-29T10:19:30;99256.47;;;10.85;100.00
11223;BME280;5668;52.012;8.724;2023-12-29T10:22:06;99255.28;;;10.89;100.00
11223;BME280;5668;52.012;8.724;2023-12-29T10:24:36;99264.97;;;10.87;100.00
11223;BME280;5668;52.012;8.724;2023-12-29T10:27:04;99269.88;;;10.90;100.00
11223;BME280;5668;52.012;8.724;2023-12-29T10:29:32;99250.75;;;10.91;100.00
11223;BME280;5668;52.012;8.724;2023-12-29T10:31:59;99248.00;;;10.93;100.00
11223;BME280;5668;52.012;8.724;2023-12-29T10:34:26;99243.63;;;10.93;100.00
11223;BME280;5668;52.012;8.724;2023-12-29T10:36:55;99269.38;;;10.96;100.00
11223;BME280;5668;52.012;8.724;2023-12-29T10:39:23;99270.19;;;10.97;100.00
11223;BME280;5668;52.012;8.724;2023-12-29T10:42:03;99256.09;;;10.99;100.00
11223;BME280;5668;52.012;8.724;2023-12-29T10:44:31;99252.94;;;10.96;100.00
11223;BME280;5668;52.012;8.724;2023-12-29T10:46:58;99267.31;;;11.00;100.00
11223;BME280;5668;52.012;8.724;2023-12-29T10:49:34;99257.59;;;11.02;100.00
11223;BME280;5668;52.012;8.724;2023-12-29T10:52:11;99245.13;;;11.05;100.00
11223;BME280;5668;52.012;8.724;2023-12-29T10:54:39;99244.75;;;11.10;100.00
11223;BME280;5668;52.012;8.724;2023-12-29T10:57:09;99230.22;;;11.07;100.00
11223;BME280;5668;52.012;8.724;2023-12-29T10:59:37;99229.13;;;11.10;100.00
11223;BME280;5668;52.012;8.724;2023-12-29T11:02:04;99231.31;;;11.14;100.00
11223;BME280;5668;52.012;8.724;2023-12-29T11:04:34;99221.47;;;11.18;100.00
11223;BME280;5668;52.012;8.724;2023-12-29T11:07:01;99220.91;;;11.14;100.00
11223;BME280;5668;52.012;8.724;2023-12-29T11:09:29;99218.19;;;11.16;100.00
11223;BME280;5668;52.012;8.724;2023-12-29T11:11:57;99221.59;;;11.16;100.00
11223;BME280;5668;52.012;8.724;2023-12-29T11:14:27;99218.19;;;11.16;100.00
11223;BME280;5668;52.012;8.724;2023-12-29T11:16:56;99235.69;;;11.14;100.00
11223;BME280;5668;52.012;8.724;2023-12-29T11:19:23;99242.28;;;11.18;100.00
11223;BME280;5668;52.012;8.724;2023-12-29T11:21:52;99234.34;;;11.19;100.00
11223;BME280;5668;52.012;8.724;2023-12-29T11:24:21;99230.38;;;11.25;100.00
11223;BME280;5668;52.012;8.724;2023-12-29T11:26:49;99232.84;;;11.27;100.00
11223;BME280;5668;52.012;8.724;2023-12-29T11:29:17;99241.31;;;11.29;100.00
11223;BME280;5668;52.012;8.724;2023-12-29T11:31:46;99234.19;;;11.31;100.00
11223;BME280;5668;52.012;8.724;2023-12-29T11:34:23;99235.16;;;11.30;100.00
11223;BME280;5668;52.012;8.724;2023-12-29T11:36:57;99223.91;;;11.29;100.00
11223;BME280;5668;52.012;8.724;2023-12-29T11:39:33;99243.78;;;11.30;100.00
11223;BME280;5668;52.012;8.724;2023-12-29T11:44:49;99237.09;;;11.28;100.00
11223;BME280;5668;52.012;8.724;2023-12-29T11:47:37;99237.75;;;11.30;100.00
11223;BME280;5668;52.012;8.724;2023-12-29T11:50:06;99233.50;;;11.29;100.00
11223;BME280;5668;52.012;8.724;2023-12-29T11:52:36;99237.75;;;11.30;100.00
11223;BME280;5668;52.012;8.724;2023-12-29T11:55:08;99232.97;;;11.35;100.00
11223;BME280;5668;52.012;8.724;2023-12-29T11:57:36;99233.75;;;11.35;100.00
11223;BME280;5668;52.012;8.724;2023-12-29T12:00:06;99233.63;;;11.37;100.00
11223;BME280;5668;52.012;8.724;2023-12-29T12:02:35;99232.97;;;11.35;100.00
11223;BME280;5668;52.012;8.724;2023-12-29T12:05:03;99234.88;;;11.33;100.00
11223;BME280;5668;52.012;8.724;2023-12-29T12:07:57;99245.28;;;11.33;100.00
11223;BME280;5668;52.012;8.724;2023-12-29T12:10:32;99229.00;;;11.31;100.00
11223;BME280;5668;52.012;8.724;2023-12-29T12:13:00;99234.88;;;11.33;100.00
11223;BME280;5668;52.012;8.724;2023-12-29T12:15:34;99233.50;;;11.29;100.00
11223;BME280;5668;52.012;8.724;2023-12-29T12:18:04;99224.09;;;11.28;100.00
11223;BME280;5668;52.012;8.724;2023-12-29T12:20:33;99222.84;;;11.32;100.00
11223;BME280;5668;52.012;8.724;2023-12-29T12:23:02;99223.53;;;11.34;100.00
11223;BME280;5668;52.012;8.724;2023-12-29T12:25:31;99222.56;;;11.35;100.00
11223;BME280;5668;52.012;8.724;2023-12-29T12:28:06;99211.03;;;11.37;100.00
11223;BME280;5668;52.012;8.724;2023-12-29T12:30:34;99222.41;;;11.36;100.00
11223;BME280;5668;52.012;8.724;2023-12-29T12:33:03;99221.56;;;11.36;100.00
11223;BME280;5668;52.012;8.724;2023-12-29T12:35:30;99222.28;;;11.38;100.00
11223;BME280;5668;52.012;8.724;2023-12-29T12:38:08;99231.03;;;11.37;100.00
11223;BME280;5668;52.012;8.724;2023-12-29T12:40:35;99231.97;;;11.36;100.00
11223;BME280;5668;52.012;8.724;2023-12-29T12:43:04;99225.56;;;11.40;100.00
11223;BME280;5668;52.012;8.724;2023-12-29T12:45:35;99231.03;;;11.37;100.00
11223;BME280;5668;52.012;8.724;2023-12-29T12:48:14;99230.06;;;11.38;100.00
11223;BME280;5668;52.012;8.724;2023-12-29T12:50:48;99239.53;;;11.39;100.00
11223;BME280;5668;52.012;8.724;2023-12-29T12:53:16;99228.56;;;11.35;100.00
11223;BME280;5668;52.012;8.724;2023-12-29T12:55:48;99225.81;;;11.37;100.00
11223;BME280;5668;52.012;8.724;2023-12-29T12:58:16;99235.97;;;11.40;100.00
11223;BME280;5668;52.012;8.724;2023-12-29T13:00:44;99227.88;;;11.43;100.00
11223;BME280;5668;52.012;8.724;2023-12-29T13:03:13;99219.94;;;11.44;100.00
11223;BME280;5668;52.012;8.724;2023-12-29T13:05:42;99218.16;;;11.45;100.00
11223;BME280;5668;52.012;8.724;2023-12-29T13:08:11;99217.06;;;11.47;100.00
11223;BME280;5668;52.012;8.724;2023-12-29T13:10:41;99204.88;;;11.48;100.00
11223;BME280;5668;52.012;8.724;2023-12-29T13:13:09;99208.28;;;11.48;100.00
11223;BME280;5668;52.012;8.724;2023-12-29T13:15:46;99201.31;;;11.49;100.00